Time;durP1;ratioP1;P1;durP2;ratioP2;P2;SDS_P1;SDS_P2;PMS_P1;PMS_P2;Temp;Humidity;BMP_temperature;BMP_pressure;BME280_temperature;BME280_humidity;BME280_pressure;Samples;Min_cycle;Max_cycle;Signal;HPM_P1;HPM_P2
2022/01/08 00:00:30;;;;;;;10.98;9.88;;;;;;;19.25;41.23;101185.00;5013519;28;20050;-82
2022/01/08 00:02:58;;;;;;;15.75;9.88;;;;;;;19.25;41.03;101177.78;5013013;28;20057;-82
2022/01/08 00:05:25;;;;;;;12.52;9.63;;;;;;;19.24;41.23;101180.56;5013158;28;20048;-82
2022/01/08 00:07:54;;;;;;;10.63;9.07;;;;;;;19.24;41.26;101168.03;5011402;28;20050;-82
2022/01/08 00:10:23;;;;;;;12.82;10.25;;;;;;;19.24;41.24;101181.47;5011372;28;20050;-83
2022/01/08 00:12:51;;;;;;;13.82;9.93;;;;;;;19.25;41.14;101180.47;5012805;28;20050;-81
2022/01/08 00:15:18;;;;;;;13.50;9.65;;;;;;;19.25;41.12;101167.03;5013061;28;20046;-81
2022/01/08 00:17:46;;;;;;;13.60;10.10;;;;;;;19.25;40.75;101167.03;5012285;28;20080;-81
2022/01/08 00:20:14;;;;;;;10.75;9.65;;;;;;;19.26;40.68;101163.38;5012038;28;20046;-81
2022/01/08 00:22:57;;;;;;;11.15;9.95;;;;;;;19.26;40.38;101151.78;5011706;28;20421;-81
2022/01/08 00:25:24;;;;;;;12.85;9.63;;;;;;;19.26;40.45;101151.78;5011848;28;20057;-81
2022/01/08 00:27:52;;;;;;;10.85;9.73;;;;;;;19.26;40.12;101146.44;5011926;28;20050;-81
2022/01/08 00:30:19;;;;;;;11.38;10.15;;;;;;;19.25;40.12;101147.41;5011571;28;20053;-80
2022/01/08 00:32:47;;;;;;;12.85;10.90;;;;;;;19.26;40.05;101149.97;5012860;28;20057;-81
2022/01/08 00:35:14;;;;;;;13.57;11.27;;;;;;;19.26;39.87;101152.66;5011506;28;20050;-82
2022/01/08 00:37:42;;;;;;;16.58;12.05;;;;;;;19.27;39.91;101157.03;5013383;28;20049;-82
2022/01/08 00:40:10;;;;;;;15.02;12.77;;;;;;;19.27;39.64;101165.06;5015305;28;20172;-82
2022/01/08 00:42:38;;;;;;;14.55;12.18;;;;;;;19.27;39.78;101154.34;5012259;28;20042;-82
2022/01/08 00:45:07;;;;;;;13.48;12.15;;;;;;;19.29;39.69;101154.25;5012763;28;20046;-82
2022/01/08 00:47:34;;;;;;;14.77;12.95;;;;;;;19.29;39.51;101153.38;5012133;28;20458;-82
2022/01/08 00:50:04;;;;;;;15.75;13.05;;;;;;;19.29;39.25;101148.88;5011876;28;20045;-82
2022/01/08 00:52:32;;;;;;;13.70;12.25;;;;;;;19.29;39.42;101153.38;5012002;28;20056;-82
2022/01/08 00:54:59;;;;;;;15.55;13.63;;;;;;;19.30;39.45;101153.25;5015772;28;20050;-82
2022/01/08 00:57:26;;;;;;;14.65;12.82;;;;;;;19.31;39.27;101148.72;5015281;28;20377;-82
2022/01/08 00:59:54;;;;;;;15.27;13.55;;;;;;;19.32;39.36;101147.75;5016402;28;20045;-82
2022/01/08 01:02:21;;;;;;;14.73;12.60;;;;;;;19.32;39.32;101140.53;5016321;28;20061;-82
2022/01/08 01:04:49;;;;;;;13.50;12.02;;;;;;;19.33;39.13;101126.16;5015529;28;20049;-82
2022/01/08 01:07:16;;;;;;;15.18;12.05;;;;;;;19.34;39.16;101132.38;5016382;28;20049;-83
2022/01/08 01:09:44;;;;;;;13.25;11.85;;;;;;;19.35;38.93;101134.94;5016361;28;20042;-83
2022/01/08 01:12:13;;;;;;;14.27;12.07;;;;;;;19.37;38.98;101137.50;5016258;28;20057;-82
2022/01/08 01:15:00;;;;;;;13.02;11.45;;;;;;;19.38;38.67;101131.16;5016032;28;20077;-82
2022/01/08 01:17:27;;;;;;;13.35;11.68;;;;;;;19.39;39.03;101130.16;5015227;28;20053;-82
2022/01/08 01:19:55;;;;;;;13.10;11.70;;;;;;;19.40;38.84;101131.88;5014977;28;20061;-82
2022/01/08 01:22:28;;;;;;;13.25;11.32;;;;;;;19.40;38.61;101130.03;5014921;28;20371;-82
2022/01/08 01:25:03;;;;;;;12.15;10.90;;;;;;;19.41;38.75;101131.75;5016012;28;20042;-82
2022/01/08 01:30:19;;;;;;;15.70;13.73;;;;;;;19.43;38.60;101145.06;5016183;28;20045;-82
2022/01/08 01:42:06;;;;;;;15.25;13.57;;;;;;;19.45;38.51;101141.28;5016894;28;20050;-82
2022/01/08 01:49:21;;;;;;;15.18;13.43;;;;;;;19.46;38.65;101148.34;5015883;28;20052;-82
2022/01/08 01:51:49;;;;;;;15.65;13.82;;;;;;;19.44;38.54;101134.19;5015207;28;20521;-82
2022/01/08 01:54:16;;;;;;;14.75;13.25;;;;;;;19.46;38.65;101136.75;5015188;28;20049;-82
2022/01/08 01:56:44;;;;;;;17.15;14.30;;;;;;;19.45;38.70;101127.00;5015229;28;20393;-82
2022/01/08 01:59:13;;;;;;;16.67;14.35;;;;;;;19.45;38.87;101121.63;5014033;28;20057;-83
2022/01/08 02:01:40;;;;;;;15.70;13.05;;;;;;;19.45;38.57;101122.47;5015467;28;20053;-82
2022/01/08 02:04:08;;;;;;;14.43;12.98;;;;;;;19.45;38.88;101110.91;5015310;28;20049;-83
2022/01/08 02:06:35;;;;;;;14.55;12.98;;;;;;;19.44;38.93;101111.84;5014089;28;20046;-82
2022/01/08 02:09:02;;;;;;;14.63;12.18;;;;;;;19.43;39.06;101111.00;5014220;28;20060;-81
2022/01/08 02:11:30;;;;;;;13.35;11.90;;;;;;;19.42;38.97;101101.25;5014948;28;20057;-82
2022/01/08 02:14:04;;;;;;;13.52;12.18;;;;;;;19.42;39.01;101097.72;5013658;28;20057;-82
2022/01/08 02:16:31;;;;;;;13.57;12.18;;;;;;;19.43;39.11;101096.72;5014682;28;20065;-82
2022/01/08 02:18:59;;;;;;;15.20;11.95;;;;;;;19.42;39.07;101095.03;5014851;28;20050;-82
2022/01/08 02:21:26;;;;;;;13.13;11.77;;;;;;;19.42;39.24;101097.72;5015090;28;20520;-83
2022/01/08 02:23:53;;;;;;;13.52;12.13;;;;;;;19.40;39.25;101092.44;5015023;28;20042;-82
2022/01/08 02:26:21;;;;;;;12.85;11.23;;;;;;;19.41;39.15;101087.97;5014891;28;20046;-82
2022/01/08 02:28:48;;;;;;;13.07;11.75;;;;;;;19.39;39.36;101088.06;5014711;28;20050;-82
2022/01/08 02:31:25;;;;;;;14.77;12.75;;;;;;;19.40;39.14;101080.84;5014466;28;20482;-82
2022/01/08 02:33:53;;;;;;;13.70;11.60;;;;;;;19.39;39.23;101084.53;5014374;28;20042;-82
2022/01/08 02:36:21;;;;;;;12.93;11.45;;;;;;;19.37;39.36;101078.44;5014136;28;20397;-82
2022/01/08 02:38:49;;;;;;;14.40;10.65;;;;;;;19.36;39.27;101069.50;5014254;28;20387;-82
2022/01/08 02:41:17;;;;;;;12.60;10.60;;;;;;;19.37;39.52;101065.88;5024240;28;20048;-82
2022/01/08 02:43:52;;;;;;;12.10;10.18;;;;;;;19.36;39.46;101066.84;5016992;28;20386;-82
2022/01/08 02:46:20;;;;;;;14.32;10.98;;;;;;;19.36;39.43;101066.84;5014176;28;20072;-81
2022/01/08 02:48:48;;;;;;;12.90;10.45;;;;;;;19.37;39.07;101059.66;5014566;28;20046;-81
2022/01/08 02:51:16;;;;;;;12.02;10.73;;;;;;;19.37;39.16;101060.50;5014196;28;20042;-81
2022/01/08 02:53:43;;;;;;;12.27;10.77;;;;;;;19.39;39.21;101060.38;5013152;28;20073;-80
2022/01/08 02:56:10;;;;;;;11.80;9.98;;;;;;;19.40;39.17;101051.31;5013990;28;20064;-81
2022/01/08 02:58:38;;;;;;;11.48;10.35;;;;;;;19.40;39.10;101056.69;5014045;28;20111;-81
2022/01/08 03:01:05;;;;;;;10.00;9.00;;;;;;;19.40;39.04;101062.06;5014200;28;20384;-81
2022/01/08 03:03:33;;;;;;;12.00;10.57;;;;;;;19.40;39.24;101059.38;5013964;28;20050;-81
2022/01/08 03:06:00;;;;;;;11.55;9.95;;;;;;;19.40;39.01;101056.69;5014099;28;20050;-81
2022/01/08 03:08:28;;;;;;;11.43;10.23;;;;;;;19.39;39.14;101058.53;5013936;28;20054;-82
2022/01/08 03:10:55;;;;;;;10.70;9.63;;;;;;;19.39;39.16;101066.59;5013858;28;20398;-82
2022/01/08 03:13:22;;;;;;;10.80;9.68;;;;;;;19.39;39.33;101050.47;5014033;28;20046;-82
2022/01/08 03:15:50;;;;;;;10.38;9.35;;;;;;;19.39;39.11;101045.09;5014037;28;20045;-81
2022/01/08 03:18:17;;;;;;;11.30;9.45;;;;;;;19.37;39.00;101035.50;5014203;28;20050;-82
2022/01/08 03:20:59;;;;;;;10.23;9.20;;;;;;;19.39;38.98;101038.88;5014375;28;20045;-82
2022/01/08 03:23:37;;;;;;;11.52;9.95;;;;;;;19.36;38.94;101034.63;5012826;28;20050;-81
2022/01/08 03:26:05;;;;;;;10.10;8.73;;;;;;;19.36;39.22;101031.94;5013697;28;20390;-81
2022/01/08 03:28:32;;;;;;;10.43;9.10;;;;;;;19.36;39.26;101036.44;5012720;28;20058;-81
2022/01/08 03:31:00;;;;;;;10.80;9.68;;;;;;;19.36;39.17;101037.31;4996239;28;20054;-81
2022/01/08 03:33:27;;;;;;;10.63;9.57;;;;;;;19.35;39.25;101032.91;5013637;28;20046;-81
2022/01/08 03:35:55;;;;;;;10.32;8.63;;;;;;;19.34;39.27;101031.22;5013550;28;20073;-81
2022/01/08 03:38:23;;;;;;;11.35;9.43;;;;;;;19.34;39.27;101036.59;5013456;28;20046;-81
2022/01/08 03:40:50;;;;;;;12.20;9.60;;;;;;;19.34;39.45;101038.44;5013661;28;20049;-83
2022/01/08 03:43:17;;;;;;;10.80;9.10;;;;;;;19.33;39.51;101031.38;5023707;28;20050;-83
2022/01/08 03:45:45;;;;;;;11.18;8.35;;;;;;;19.32;39.66;101033.16;5013989;28;20496;-83
2022/01/08 03:48:28;;;;;;;11.20;9.05;;;;;;;19.31;39.81;101036.00;5013519;28;20057;-83
2022/01/08 03:50:55;;;;;;;9.10;8.20;;;;;;;19.30;39.89;101035.13;5013928;28;20105;-81
2022/01/08 03:53:24;;;;;;;10.52;9.23;;;;;;;19.30;39.75;101026.25;5013674;28;20050;-82
2022/01/08 03:55:52;;;;;;;10.10;8.90;;;;;;;19.28;39.77;101034.41;5013771;28;20050;-82
2022/01/08 03:58:20;;;;;;;11.23;9.05;;;;;;;19.27;40.08;101028.19;5012586;28;20401;-82
2022/01/08 04:00:49;;;;;;;9.30;7.78;;;;;;;19.27;39.88;101028.19;4993661;28;20042;-83
2022/01/08 04:03:18;;;;;;;9.05;8.13;;;;;;;19.27;39.87;101030.00;4992405;28;20046;-83
2022/01/08 04:05:47;;;;;;;9.25;8.25;;;;;;;19.26;39.82;101029.16;4994020;28;20054;-83
2022/01/08 04:08:16;;;;;;;9.40;8.40;;;;;;;19.26;39.71;101028.31;4993458;28;20065;-82
2022/01/08 04:10:43;;;;;;;11.88;9.70;;;;;;;19.26;39.71;101029.16;4993462;28;20042;-82
2022/01/08 04:13:17;;;;;;;10.23;8.40;;;;;;;19.25;39.78;101032.84;4993477;28;20046;-83
2022/01/08 04:15:46;;;;;;;10.73;8.65;;;;;;;19.25;39.86;101040.91;4993185;28;20069;-83
2022/01/08 04:18:14;;;;;;;10.75;8.20;;;;;;;19.25;39.43;101043.56;4993639;28;20486;-83
2022/01/08 04:23:32;;;;;;;9.05;8.15;;;;;;;19.24;39.60;101033.81;4983316;28;20050;-83
2022/01/08 04:26:00;;;;;;;11.15;8.43;;;;;;;19.24;39.63;101041.88;4993873;28;20046;-83
2022/01/08 04:28:28;;;;;;;9.27;8.27;;;;;;;19.24;39.55;101041.00;4993756;28;20057;-83
2022/01/08 04:30:55;;;;;;;10.18;7.65;;;;;;;19.24;39.54;101041.00;4997157;28;20034;-83
2022/01/08 04:33:22;;;;;;;9.38;7.97;;;;;;;19.23;39.24;101050.88;4997141;28;20042;-83
2022/01/08 04:35:50;;;;;;;11.25;8.20;;;;;;;19.22;39.51;101051.88;5015261;28;20041;-83
2022/01/08 04:38:17;;;;;;;9.27;7.55;;;;;;;19.23;39.47;101045.53;5016600;28;20042;-83
2022/01/08 04:40:45;;;;;;;8.70;7.82;;;;;;;19.22;39.49;101032.25;5016732;28;20049;-83
2022/01/08 04:43:13;;;;;;;9.32;8.02;;;;;;;19.22;39.48;101043.81;5022811;28;20369;-82
2022/01/08 04:45:42;;;;;;;8.43;7.53;;;;;;;19.21;39.61;101047.50;5016188;28;20057;-83
2022/01/08 04:48:09;;;;;;;8.18;7.38;;;;;;;19.20;39.52;101043.09;5016368;28;20045;-83
2022/01/08 04:50:37;;;;;;;9.13;7.90;;;;;;;19.20;39.53;101031.50;5016259;28;20477;-83
2022/01/08 04:53:05;;;;;;;7.50;6.78;;;;;;;19.19;39.51;101033.34;5016407;28;20046;-83
2022/01/08 04:55:32;;;;;;;8.23;6.93;;;;;;;19.18;39.37;101028.09;5016262;28;20053;-83
2022/01/08 04:57:59;;;;;;;9.52;8.25;;;;;;;19.17;39.49;101018.34;5016196;28;20046;-82
2022/01/08 05:00:27;;;;;;;10.45;7.30;;;;;;;19.16;39.49;101020.19;5016162;28;20046;-82
2022/01/08 05:02:54;;;;;;;8.00;7.07;;;;;;;19.16;39.54;101024.66;5015116;28;20441;-83
2022/01/08 05:05:22;;;;;;;8.48;7.05;;;;;;;19.15;39.64;101020.28;5016448;28;20045;-83
2022/01/08 05:07:49;;;;;;;8.65;7.63;;;;;;;19.14;39.27;101016.75;5014811;28;20056;-82
2022/01/08 05:10:17;;;;;;;8.52;7.40;;;;;;;19.13;39.37;101020.44;5015993;28;20486;-82
2022/01/08 05:12:45;;;;;;;7.97;7.18;;;;;;;19.12;39.49;101009.81;5015972;28;20406;-82
2022/01/08 05:15:12;;;;;;;10.57;7.05;;;;;;;19.13;39.37;101022.25;5015666;28;20050;-82
2022/01/08 05:17:42;;;;;;;7.80;6.78;;;;;;;19.15;39.10;101022.97;5016254;28;20049;-82
2022/01/08 05:20:12;;;;;;;7.60;6.85;;;;;;;19.15;39.23;101031.88;5015672;28;20049;-82
2022/01/08 05:25:15;;;;;;;7.03;6.32;;;;;;;19.18;39.10;101033.47;5015809;28;20050;-82
2022/01/08 05:27:43;;;;;;;7.15;6.45;;;;;;;19.18;39.07;101036.16;5013940;28;20046;-82
2022/01/08 05:30:12;;;;;;;6.85;6.15;;;;;;;19.17;39.09;101032.63;5014622;28;20045;-82
2022/01/08 05:32:40;;;;;;;8.77;6.53;;;;;;;19.17;39.07;101034.47;5015552;28;20053;-82
2022/01/08 05:35:08;;;;;;;7.35;6.65;;;;;;;19.17;39.17;101029.09;5015563;28;20049;-82
2022/01/08 05:37:36;;;;;;;7.55;6.35;;;;;;;19.17;38.96;101029.94;5014136;28;20066;-82
2022/01/08 05:40:03;;;;;;;8.45;6.22;;;;;;;19.16;39.30;101025.56;5014414;28;20046;-82
2022/01/08 05:42:31;;;;;;;8.15;6.50;;;;;;;19.16;39.20;101019.31;5015423;28;20054;-82
2022/01/08 05:44:58;;;;;;;7.07;6.30;;;;;;;19.16;39.03;101016.63;5022157;28;20061;-82
2022/01/08 05:47:33;;;;;;;8.30;6.60;;;;;;;19.16;39.08;101016.63;5035937;28;20080;-82
2022/01/08 05:50:02;;;;;;;8.13;6.72;;;;;;;19.16;39.02;101017.50;5034168;28;20061;-83
2022/01/08 05:52:29;;;;;;;7.38;5.60;;;;;;;19.16;39.19;101028.25;5035030;28;20401;-82
2022/01/08 05:54:57;;;;;;;6.70;5.80;;;;;;;19.16;39.04;101036.28;5035130;28;20061;-82
2022/01/08 05:57:25;;;;;;;7.30;6.15;;;;;;;19.16;39.00;101022.00;5033221;28;20053;-83
2022/01/08 05:59:52;;;;;;;7.78;6.05;;;;;;;19.15;38.95;101009.56;5034839;28;20049;-83
2022/01/08 06:02:19;;;;;;;7.53;5.90;;;;;;;19.15;39.06;101010.41;5034603;28;20045;-83
2022/01/08 06:04:47;;;;;;;6.55;5.72;;;;;;;19.15;39.04;101010.41;5033679;28;20045;-83
2022/01/08 06:07:14;;;;;;;6.57;5.88;;;;;;;19.14;39.06;101011.38;5034662;28;20045;-83
2022/01/08 06:09:42;;;;;;;7.72;6.65;;;;;;;19.15;39.06;101005.03;5034670;28;20046;-82
2022/01/08 06:12:09;;;;;;;7.05;5.90;;;;;;;19.15;39.06;101001.50;5035158;28;20045;-82
2022/01/08 06:14:37;;;;;;;7.55;6.15;;;;;;;19.15;39.06;100998.81;5033162;28;20050;-82
2022/01/08 06:17:05;;;;;;;6.72;6.05;;;;;;;19.16;39.15;100987.09;5034585;28;20061;-82
2022/01/08 06:19:33;;;;;;;9.88;6.63;;;;;;;19.14;38.84;100981.88;5033098;28;20049;-82
2022/01/08 06:22:01;;;;;;;8.43;6.72;;;;;;;19.14;38.96;100973.81;5034594;28;20048;-85
2022/01/08 06:24:28;;;;;;;8.57;7.68;;;;;;;19.12;39.11;100967.75;5034615;28;20052;-83
2022/01/08 06:26:56;;;;;;;8.23;6.93;;;;;;;19.11;39.17;100967.84;5033183;28;20052;-83
2022/01/08 06:29:23;;;;;;;7.68;6.90;;;;;;;19.11;38.97;100971.38;5034389;28;20057;-82
2022/01/08 06:31:50;;;;;;;9.30;6.90;;;;;;;19.12;39.12;100972.22;5033831;28;20053;-83
2022/01/08 06:34:18;;;;;;;9.25;7.05;;;;;;;19.10;39.25;100969.69;5033070;28;20072;-83
2022/01/08 06:36:47;;;;;;;8.45;7.30;;;;;;;19.09;39.08;100977.88;5034422;28;20049;-83
2022/01/08 06:39:15;;;;;;;9.43;6.90;;;;;;;19.08;38.98;100989.56;5034314;28;20050;-83
2022/01/08 06:41:43;;;;;;;10.07;6.95;;;;;;;19.08;38.93;101003.88;5034417;28;20041;-83
2022/01/08 06:44:11;;;;;;;7.97;6.93;;;;;;;19.07;38.90;101004.81;5032085;28;20057;-84
2022/01/08 06:46:40;;;;;;;7.10;6.38;;;;;;;19.07;39.11;100998.59;5016731;28;20050;-84
2022/01/08 06:49:08;;;;;;;7.47;6.53;;;;;;;19.04;38.95;100991.69;5014207;28;20478;-84
2022/01/08 06:51:36;;;;;;;8.15;6.90;;;;;;;19.03;38.94;101009.56;5012773;28;20520;-83
2022/01/08 06:54:04;;;;;;;8.85;7.30;;;;;;;19.02;39.02;101004.34;5012671;28;20418;-83
2022/01/08 06:56:31;;;;;;;7.72;6.13;;;;;;;19.03;38.90;101019.47;5013976;28;20410;-83
2022/01/08 06:58:58;;;;;;;7.13;6.43;;;;;;;19.02;38.95;101025.81;5012734;28;20072;-83
2022/01/08 07:01:26;;;;;;;9.05;6.80;;;;;;;19.00;38.99;101025.94;5013760;28;20145;-83
2022/01/08 07:03:56;;;;;;;7.53;6.35;;;;;;;19.00;39.00;101028.63;5012673;28;20050;-83
2022/01/08 07:06:24;;;;;;;8.50;6.05;;;;;;;18.99;38.93;101042.16;5012229;28;20520;-83
2022/01/08 07:08:54;;;;;;;7.38;6.63;;;;;;;18.98;38.95;101040.47;5013774;28;20409;-83
2022/01/08 07:11:21;;;;;;;7.28;6.47;;;;;;;18.98;38.93;101048.50;5012115;28;20046;-83
2022/01/08 07:13:48;;;;;;;7.50;6.13;;;;;;;18.97;39.02;101054.84;5013744;28;20057;-82
2022/01/08 07:16:16;;;;;;;8.10;6.35;;;;;;;18.95;38.97;101059.47;5013574;28;20498;-82
2022/01/08 07:18:43;;;;;;;7.57;6.05;;;;;;;18.94;38.97;101060.47;5012656;28;20109;-82
2022/01/08 07:21:11;;;;;;;7.70;6.82;;;;;;;18.94;38.90;101064.00;5013542;28;20046;-82
2022/01/08 07:23:38;;;;;;;7.13;6.43;;;;;;;18.93;38.90;101059.63;5013642;28;20050;-81
2022/01/08 07:26:05;;;;;;;8.43;6.68;;;;;;;18.93;38.90;101056.09;5014144;28;20053;-82
2022/01/08 07:28:32;;;;;;;7.18;6.47;;;;;;;18.92;38.84;101040.94;5012768;28;20057;-83
2022/01/08 07:31:00;;;;;;;8.77;7.18;;;;;;;18.93;38.95;101048.03;5013488;28;20046;-84
2022/01/08 07:33:27;;;;;;;8.27;6.75;;;;;;;18.93;39.23;101050.72;5013936;28;20041;-84
2022/01/08 07:35:55;;;;;;;8.07;6.20;;;;;;;18.91;39.35;101049.97;5013526;28;20050;-84
2022/01/08 07:38:22;;;;;;;9.10;6.82;;;;;;;18.88;39.46;101043.03;5013843;28;20401;-83
2022/01/08 07:40:51;;;;;;;8.55;6.40;;;;;;;18.88;39.45;101042.16;5012191;28;20061;-82
2022/01/08 07:43:19;;;;;;;8.35;6.15;;;;;;;18.90;39.75;101048.28;5012233;28;20058;-83
2022/01/08 07:45:47;;;;;;;8.68;5.82;;;;;;;18.89;40.21;101049.25;5014000;28;20057;-82
2022/01/08 07:48:15;;;;;;;10.10;6.20;;;;;;;18.87;40.14;101059.25;5015418;28;20548;-83
2022/01/08 07:50:43;;;;;;;9.02;6.07;;;;;;;18.88;39.99;101066.31;5013119;28;20053;-82
2022/01/08 07:53:10;;;;;;;12.02;5.95;;;;;;;18.87;39.89;101068.13;5011932;28;20046;-82
2022/01/08 07:55:38;;;;;;;11.68;5.53;;;;;;;18.87;39.75;101061.94;5011692;28;20057;-79
2022/01/08 07:58:05;;;;;;;6.63;5.90;;;;;;;18.87;39.42;101048.50;5013400;28;20517;-82
2022/01/08 08:00:32;;;;;;;8.85;7.00;;;;;;;18.84;38.34;101048.75;5011868;28;20050;-83
2022/01/08 08:03:00;;;;;;;8.55;7.10;;;;;;;18.81;36.42;101040.97;5013027;28;20046;-82
2022/01/08 08:05:30;;;;;;;9.80;8.18;;;;;;;18.75;35.99;101040.47;5016863;28;20042;-81
2022/01/08 08:07:57;;;;;;;8.90;6.82;;;;;;;18.74;38.02;101046.81;5017419;28;20054;-84
2022/01/08 08:10:29;;;;;;;9.57;6.20;;;;;;;18.76;37.63;101050.25;5017297;28;20052;-81
2022/01/08 08:12:57;;;;;;;9.13;6.40;;;;;;;18.80;37.42;101053.53;5016754;28;20056;-82
2022/01/08 08:15:25;;;;;;;6.97;6.22;;;;;;;18.81;37.41;101057.91;5015051;28;20061;-81
2022/01/08 08:17:53;;;;;;;13.40;6.43;;;;;;;18.83;37.54;101055.94;5017197;28;20053;-81
2022/01/08 08:20:20;;;;;;;10.13;6.03;;;;;;;18.85;37.20;101053.16;5016845;28;20046;-82
2022/01/08 08:22:48;;;;;;;8.88;6.00;;;;;;;18.87;37.25;101054.72;5016780;28;20482;-81
2022/01/08 08:25:16;;;;;;;9.98;5.75;;;;;;;18.89;37.35;101047.44;5015818;28;20049;-82
2022/01/08 08:27:43;;;;;;;7.55;5.47;;;;;;;18.92;37.10;101044.50;5016422;28;20053;-82
2022/01/08 08:30:11;;;;;;;8.38;5.93;;;;;;;18.93;37.16;101048.88;5016804;28;20046;-82
2022/01/08 08:32:39;;;;;;;7.70;5.57;;;;;;;18.95;37.19;101046.06;5016767;28;20389;-82
2022/01/08 08:35:08;;;;;;;7.22;5.10;;;;;;;18.96;37.15;101047.78;5015163;28;20050;-82
2022/01/08 08:37:36;;;;;;;6.85;5.20;;;;;;;18.98;37.03;101041.31;5016854;28;20409;-82
2022/01/08 08:40:13;;;;;;;8.10;4.70;;;;;;;19.00;37.09;101041.19;5016986;28;20049;-82
2022/01/08 08:42:41;;;;;;;6.28;5.68;;;;;;;19.00;37.14;101034.00;5016254;28;20371;-81
2022/01/08 08:45:10;;;;;;;6.97;4.88;;;;;;;19.00;37.05;101049.25;5016691;28;20050;-82
2022/01/08 08:47:39;;;;;;;7.05;4.72;;;;;;;19.01;36.98;101053.63;5026872;28;20041;-82
2022/01/08 08:50:10;;;;;;;6.18;4.88;;;;;;;19.01;36.97;101045.59;5019764;28;20049;-82
2022/01/08 08:52:37;;;;;;;6.95;5.30;;;;;;;19.01;37.12;101040.22;5014817;28;20041;-82
2022/01/08 08:55:05;;;;;;;5.20;4.30;;;;;;;19.01;36.91;101043.75;5016400;28;20049;-82
2022/01/08 08:57:33;;;;;;;5.47;4.47;;;;;;;19.01;36.95;101049.13;5016207;28;20049;-82
2022/01/08 09:00:00;;;;;;;6.78;4.90;;;;;;;19.01;36.79;101040.22;5000626;28;20053;-82
2022/01/08 09:02:28;;;;;;;8.02;5.10;;;;;;;19.01;36.88;101042.91;4996347;28;20490;-82
2022/01/08 09:04:55;;;;;;;5.90;4.80;;;;;;;19.01;36.84;101045.59;5011337;28;20042;-82
2022/01/08 09:07:23;;;;;;;6.95;4.80;;;;;;;19.01;36.79;101042.91;4996862;28;20050;-82
2022/01/08 09:09:50;;;;;;;4.78;4.25;;;;;;;19.01;36.71;101050.94;5009104;28;20045;-82
2022/01/08 09:12:17;;;;;;;6.05;5.25;;;;;;;19.01;36.84;101051.81;5015568;28;20406;-82
2022/01/08 09:14:45;;;;;;;6.22;5.10;;;;;;;19.01;36.90;101053.63;5015415;28;20061;-82
2022/01/08 09:17:14;;;;;;;5.45;4.80;;;;;;;19.01;36.86;101045.59;5014970;28;20050;-82
2022/01/08 09:19:42;;;;;;;6.45;4.97;;;;;;;19.01;36.73;101051.81;5015719;28;20045;-82
2022/01/08 09:22:11;;;;;;;5.07;4.05;;;;;;;19.01;36.96;101051.81;5015475;28;20050;-82
2022/01/08 09:24:39;;;;;;;7.15;5.10;;;;;;;19.02;37.00;101048.13;5015724;28;20073;-82
2022/01/08 09:27:07;;;;;;;6.85;4.60;;;;;;;19.02;36.91;101052.66;5015353;28;20049;-82
2022/01/08 09:29:34;;;;;;;6.63;4.72;;;;;;;19.02;36.94;101049.97;5015688;28;20042;-82
2022/01/08 09:32:07;;;;;;;7.22;4.55;;;;;;;19.02;36.88;101058.00;5014084;28;20058;-82
2022/01/08 09:34:40;;;;;;;5.90;4.63;;;;;;;19.02;36.81;101064.22;5014080;28;20046;-82
2022/01/08 09:37:10;;;;;;;7.07;5.20;;;;;;;19.02;36.94;101063.38;5015211;28;20058;-82
2022/01/08 09:39:39;;;;;;;5.78;4.30;;;;;;;19.03;37.07;101062.41;5015530;28;20042;-82
2022/01/08 09:42:09;;;;;;;5.35;4.85;;;;;;;19.03;36.92;101065.06;5015111;28;20057;-82
2022/01/08 09:44:39;;;;;;;5.38;4.53;;;;;;;19.05;36.94;101083.75;5014984;28;20046;-82
2022/01/08 09:47:06;;;;;;;6.75;4.22;;;;;;;19.03;37.01;101070.44;5015251;28;20413;-82
2022/01/08 09:49:34;;;;;;;6.28;4.60;;;;;;;19.02;36.91;101058.00;5032860;28;20053;-82
2022/01/08 09:52:03;;;;;;;6.57;4.50;;;;;;;19.03;36.85;101059.72;5034804;28;20044;-82
2022/01/08 09:54:32;;;;;;;4.63;4.15;;;;;;;19.03;36.95;101062.41;5034617;28;20048;-82
2022/01/08 09:57:00;;;;;;;5.07;4.18;;;;;;;19.03;37.03;101055.19;5034873;28;20053;-82
2022/01/08 09:59:28;;;;;;;6.38;4.63;;;;;;;19.02;36.96;101058.00;5024981;28;20049;-82
2022/01/08 10:01:59;;;;;;;5.82;3.95;;;;;;;19.03;36.96;101065.06;5013658;28;20049;-83
2022/01/08 10:04:33;;;;;;;5.57;4.10;;;;;;;19.02;37.11;101066.91;5014977;28;20400;-82
2022/01/08 10:07:25;;;;;;;6.13;4.35;;;;;;;19.03;36.94;101068.59;5015028;28;20042;-82
2022/01/08 10:10:11;;;;;;;4.28;3.88;;;;;;;19.03;36.83;101065.06;5014424;28;20053;-82
2022/01/08 10:12:51;;;;;;;4.45;3.80;;;;;;;19.03;37.00;101070.44;5013437;28;20076;-82
2022/01/08 10:18:34;;;;;;;5.20;4.15;;;;;;;19.02;37.07;101068.75;5014904;28;20141;-82
2022/01/08 10:21:23;;;;;;;4.43;3.72;;;;;;;19.01;37.07;101061.69;5012682;28;20054;-82
2022/01/08 10:23:53;;;;;;;5.82;4.10;;;;;;;19.00;37.08;101063.50;5014025;28;20057;-82
2022/01/08 10:26:23;;;;;;;5.35;4.28;;;;;;;19.00;36.96;101060.84;5013546;28;20046;-82
2022/01/08 10:28:56;;;;;;;5.25;4.30;;;;;;;19.00;37.13;101059.97;5013289;28;20042;-82
2022/01/08 10:31:23;;;;;;;;;;;;;;;18.99;36.99;101066.31;5012907;28;20053;-82
2022/01/08 10:34:15;;;;;;;6.53;4.00;;;;;;;19.00;37.04;101062.66;5014215;28;19921;-82
2022/01/08 10:36:55;;;;;;;5.28;4.03;;;;;;;18.98;37.02;101062.78;5014635;28;20054;-82
2022/01/08 10:39:33;;;;;;;5.22;4.00;;;;;;;18.98;37.02;101060.09;5014552;28;20060;-82
2022/01/08 10:42:13;;;;;;;4.80;4.30;;;;;;;18.97;37.21;101055.72;5014915;28;20050;-82
2022/01/08 10:44:42;;;;;;;5.35;3.78;;;;;;;18.99;37.07;101052.88;5014847;28;20053;-82
2022/01/08 10:47:16;;;;;;;4.07;3.42;;;;;;;18.98;37.15;101046.66;5013400;28;20516;-81
2022/01/08 10:49:43;;;;;;;4.45;3.72;;;;;;;18.99;37.12;101047.53;5024692;28;20048;-81
2022/01/08 10:52:16;;;;;;;5.38;3.65;;;;;;;18.98;36.89;101037.78;5032935;28;20053;-82
2022/01/08 10:54:58;;;;;;;4.60;3.75;;;;;;;18.99;36.95;101026.06;5032552;28;20428;-82
2022/01/08 10:57:34;;;;;;;5.40;4.00;;;;;;;18.99;36.78;101020.69;5033410;28;20049;-82
2022/01/08 11:00:05;;;;;;;4.68;3.65;;;;;;;18.99;36.93;101029.59;5017275;28;20101;-82
2022/01/08 11:02:33;;;;;;;4.15;3.50;;;;;;;19.01;36.82;101032.16;5014002;28;20398;-82
2022/01/08 11:05:09;;;;;;;5.30;4.05;;;;;;;19.01;36.60;101027.66;5011854;28;20046;-82
2022/01/08 11:07:39;;;;;;;6.07;3.90;;;;;;;19.01;36.80;101024.97;5012659;28;20045;-83
2022/01/08 11:10:15;;;;;;;4.22;3.70;;;;;;;19.00;36.82;101015.22;5011951;28;20075;-82
2022/01/08 11:12:45;;;;;;;4.85;3.63;;;;;;;19.01;36.61;101010.69;5014278;28;20053;-82
2022/01/08 11:17:57;;;;;;;4.35;3.53;;;;;;;19.01;36.70;101008.03;5014626;28;20046;-82
2022/01/08 11:20:45;;;;;;;5.27;3.97;;;;;;;19.00;36.87;101004.50;5013754;28;20046;-82
2022/01/08 11:23:19;;;;;;;4.43;3.63;;;;;;;19.01;36.81;100997.28;5011984;28;20053;-82
2022/01/08 11:25:48;;;;;;;6.30;3.80;;;;;;;19.01;36.66;100986.56;5013915;28;20053;-82
2022/01/08 11:28:17;;;;;;;5.05;3.33;;;;;;;19.00;36.64;100991.06;5012023;28;20061;-82
2022/01/08 11:30:55;;;;;;;4.28;3.53;;;;;;;19.00;36.74;100980.34;5013227;28;20052;-82
2022/01/08 11:33:27;;;;;;;4.88;3.42;;;;;;;19.01;36.81;100974.00;5013546;28;20100;-82
2022/01/08 11:35:56;;;;;;;4.70;3.50;;;;;;;19.02;36.84;100972.16;5013077;28;20168;-82
2022/01/08 11:38:26;;;;;;;5.53;3.78;;;;;;;19.01;36.67;100968.63;5013243;28;20739;-81
2022/01/08 11:40:58;;;;;;;4.28;3.40;;;;;;;19.00;36.93;100953.50;5013591;28;20057;-82
2022/01/08 11:43:28;;;;;;;4.15;3.40;;;;;;;19.02;36.80;100961.41;5012952;28;20501;-82
2022/01/08 11:45:58;;;;;;;4.43;3.40;;;;;;;19.01;36.80;100946.31;5012942;28;20504;-82
2022/01/08 11:48:30;;;;;;;4.85;3.38;;;;;;;19.03;36.82;100952.38;5013115;28;20049;-82
2022/01/08 11:51:01;;;;;;;3.20;2.87;;;;;;;19.01;36.82;100949.84;5025469;28;20489;-82
2022/01/08 11:53:33;;;;;;;4.32;3.42;;;;;;;19.01;36.64;100957.03;5011760;28;20750;-82
2022/01/08 11:56:04;;;;;;;3.83;3.28;;;;;;;19.01;36.67;100949.00;5012809;28;20054;-82
2022/01/08 11:58:34;;;;;;;5.03;3.40;;;;;;;19.00;36.87;100948.16;5013431;28;20512;-82